Historyczne dane pomiarowe

Dodano dane terminowe – wersja testowa.

Dane z okresu 1951-2019

Wersja bazy: 1.34 [2019-03-16, lista zmian], aktualizacja planowana na 2019-04-15

Dane meteo z obszaru Polski uzyskane na podstawie danych udostępnionych przez Instytut Meteorologii i Gospodarki Wodnej – Państwowy Instytut Badawczy.

 

Wybierz Datę:    

       

TemperaturaWilgotnośćWiatrCiśnienieOpadyŚniegCzas trwania zjawisk
 Stacja t tx tn tng RH VA  wxwx mslp ppp RRR   cm mm wxwxwxwxwxwxwx
2019-05-31 14.9 21.5 9.3 9.4 69.5 11.0- 1.1--1023.7 998.6 0.0 0.0 0.0x- 10.5-------
2019-05-30 10.7 11.8 9.5 10.0 89.5 11.5- 1.1--1023.5 998.0 8.9 8.2 0.7x- 0.0-------
2019-05-29 12.8 20.8 11.1 10.3 89.3 13.1- 1.6--1014.4 989.4 0.3 0.3 0.0x- 0.0-------
2019-05-28 19.8 25.2 14.5 13.4 68.6 15.4- 2.3--1005.5 981.3 0.0 0.0 0.0x- 7.0-------
2019-05-27 19.9 27.0 12.3 11.3 67.9 15.1- 2.0--1011.2 986.8 0.6 0.0 0.6x- 10.8-------
2019-05-26 17.7 24.1 10.5 9.8 72.8 14.1- 1.0--1013.9 989.3 0.0 0.0 0.0x- 10.8-------
2019-05-25 16.8 22.5 12.7 12.5 71.3 13.0- 1.4--1012.9 988.3 0.4 0.0 0.4x- 12.1-------
2019-05-24 12.5 13.9 11.4 11.4 98.4 14.2- 1.1--1013.7 988.6 2.3 2.3 0.0x- 0.0-------
2019-05-23 13.3 15.1 12.3 12.4 97.3 14.8- 1.5--1011.2 986.3 39.2 13.5 25.7x- 0.0-------
2019-05-22 13.9 15.6 12.6 12.4 92.6 14.7- 1.4--1004.2 979.5 8.3 5.6 2.7x- 0.2-------
2019-05-21 12.9 19.4 10.9 9.8 93.8 14.0- 2.0--1003.5 978.8 81.4 47.3 34.1x- 0.0-------
2019-05-20 19.0 23.8 14.6 13.0 68.0 14.4- 2.5--1004.6 980.3 0.0 0.0 0.0x- 9.0-------
2019-05-19 18.3 26.6 11.1 9.5 75.6 15.3- 2.0--1007.0 982.6 0.1 0.1 0.0x- 7.4-------
2019-05-18 18.5 25.2 12.2 11.3 66.8 13.5- 1.3--1009.9 985.5 0.0 0.0 0.0x- 11.2-------
2019-05-17 16.4 22.9 12.8 12.8 76.1 13.7- 1.4--1011.8 987.2 0.1 0.0 0.1x- 6.2-------
2019-05-16 13.2 19.1 9.6 9.7 87.4 13.1----1014.1 989.1 4.3 0.4 3.9x- 3.1-------
2019-05-15 9.5--- 98.4 11.7- 1.1--1016.7 991.4 3.5 0.9 2.6x- 0.0-------
2019-05-14 6.2 8.8 4.3 4.4 93.6 8.9- 1.6--1025.4 999.5 12.5 6.7 5.8x- 0.0-------
2019-05-13 8.3 10.7 7.6 7.8 80.5 8.8- 2.0--1029.51003.7 4.1 0.0 4.1x- 0.1-------
2019-05-12 14.8 22.9 10.6 9.0 72.1 11.6- 1.8--1019.3 994.3 3.6 3.6 0.0x- 8.2-------
2019-05-11 14.5 19.9 8.7 7.3 66.6 10.4- 0.9--1013.1 988.2 0.0 0.0 0.0x- 8.3-------
2019-05-10 12.0 19.0 7.2 6.2 82.9 11.4- 0.8--1008.2 983.2 7.1 7.1 0.0x- 6.2-------
2019-05-09 9.9 12.4 7.3 5.3 72.1 8.8- 2.3--1007.0 981.9 0.7 0.5 0.2x- 0.2-------
2019-05-08 9.9 16.2 1.1 0.0 59.5 6.8- 1.1--1015.5 990.2 0.0 0.0 0.0x- 10.0-------
2019-05-07 9.4 12.9 6.1 6.1 57.5 6.7- 2.3--1015.5 990.2 0.0 0.0 0.0x- 3.4-------
2019-05-06 7.6 9.8 5.6 5.5 62.0 6.3- 1.9--1012.7 987.2 0.0 0.0 0.0x- 0.0-------
2019-05-05 6.5 11.1 5.0 5.4 92.4 9.0- 1.6--1010.1 984.6 4.1 4.1 0.0x- 0.0-------
2019-05-04 10.3 16.4 4.3 3.6 72.0 8.7- 1.6--1007.0 981.9 0.0 0.0 0.0x- 10.7-------
2019-05-03 10.3 16.5 7.8 6.7 80.8 10.0- 1.1--1006.8 981.7 2.4 2.4 0.0x- 0.9-------
2019-05-02 14.4 20.4 9.1 8.0 62.8 9.8- 2.3--1005.0 980.4 0.0 0.0 0.0x- 9.5-------
2019-05-01 12.3 17.9 6.4 5.3 67.4 9.1- 1.6--1007.6 982.8 0.0 0.0 0.0x- 11.0-------
2019-04-30 11.0 12.2 10.4 10.3 96.5 12.7- 1.5--1010.4 985.3 2.6 2.6 0.0x- 0.0-------
2019-04-29 10.3 11.7 9.1 9.0 96.1 12.0- 1.0--1011.8 986.7 12.9 3.1 9.8x- 0.0-------
2019-04-28 9.9 12.0 9.3 9.2 96.1 11.7- 1.9--1013.1 987.9 30.8 22.3 8.5x- 0.0-------
2019-04-27 13.3 23.7 12.0 10.4 81.8 12.4- 1.6--1011.5 986.6 15.1 1.0 14.1x- 0.4-------
2019-04-26 21.2 29.6 10.6 8.0 46.9 10.6- 2.0--1010.8 986.6 0.0 0.0 0.0x- 10.9-------
2019-04-25 19.8 26.0 13.4 10.4 50.3 11.2- 2.9--1015.0 990.6 0.0 0.0 0.0x- 12.6-------
2019-04-24 14.5 18.0 10.8 10.5 57.3 9.5- 3.4--1017.6 992.6 0.0 0.0 0.0x- 6.8-------
2019-04-23 12.5 19.6 6.4 5.7 50.9 7.4- 3.0--1019.0 993.9 0.2 0.0 0.2x- 6.8-------
2019-04-22 12.3 17.5 8.1 6.2 56.5 7.9- 2.8--1018.7 993.5 0.0 0.0 0.0x- 6.1-------
2019-04-21 10.7 17.8 2.0 0.5 56.5 7.0- 1.4--1021.8 996.4 0.2 0.0 0.2x- 10.5-------
2019-04-20 11.5 21.4 0.1 -1.3 48.1 5.5- 1.5--1027.91002.4 0.0 0.0 0.0x- 12.2-------
2019-04-19 10.9 20.2 1.4 0.0 53.3 6.0- 1.3--1031.01005.4 0.0 0.0 0.0x- 12.5-------
2019-04-18 10.8 18.7 1.5 0.1 63.3 7.5- 1.6--1030.31004.7 0.0 0.0 0.0x- 12.0-------
2019-04-17 9.2 16.7 4.3 4.6 73.5 8.1- 1.3--1025.4 999.8 0.0 0.0 0.0x- 3.1-------
2019-04-16 5.9 14.5 -3.5 -4.3 60.9------- 0.5 0.0 0.5x- 11.9-------
2019-04-15 6.5 12.4 -1.2 -2.6 46.1 4.3- 2.0--1024.9 999.1 0.0 0.0 0.0x- 12.1-------
2019-04-14 8.8 14.9 4.6 3.8 49.4 5.4- 2.6--1020.7 995.2 0.0 0.0 0.0x- 12.1-------
2019-04-13 6.2 11.3 2.2 2.4 76.5 7.2- 1.9--1020.2 994.5 0.0 0.0 0.0x- 0.8-------
2019-04-12 2.2 3.6 1.0 1.2 94.1 6.7- 1.8--1021.9 995.8 1.7 1.7 0.0x- 0.0-------
2019-04-11 4.5 8.1 3.6 3.8 78.5 6.6- 2.4--1018.7 992.9 2.5 0.0 2.5x- 0.0-------
2019-04-10 7.0 13.9 3.7 3.3 60.5 6.0- 2.0--1014.1 988.6 0.0 0.0 0.0x- 0.6-------
2019-04-09 11.2 18.6 3.0 1.6 63.6 8.0- 1.9--1009.3 984.3 0.0 0.0 0.0x- 10.5-------
2019-04-08 10.3 19.3 1.6 0.7 73.6 8.9- 1.5--1008.7 983.6 0.0 0.0 0.0x- 9.0-------
2019-04-07 9.4 15.7 4.1 2.8 78.5 9.1- 0.9--1008.8 983.6 0.0 0.0 0.0x- 6.0-------
2019-04-06 10.8 16.6 7.2 5.9 73.5 9.4- 2.1--1008.7 983.7 3.7 3.5 0.2x- 2.3-------
2019-04-05 14.6 21.3 7.6 3.9 42.9 6.8- 2.3--1008.1 983.4 0.0 0.0 0.0x- 10.1-------
2019-04-04 13.3 18.9 7.0 3.8 42.3 6.2- 2.5--1008.5 983.6 0.0 0.0 0.0x- 8.8-------
2019-04-03 11.9 18.6 5.8 4.5 39.0 5.3- 2.9--1013.1 988.0 0.0 0.0 0.0x- 10.3-------
2019-04-02 7.5 15.0 -0.4 -2.4 39.3 3.9- 3.0--1021.7 996.0 0.0 0.0 0.0x- 10.9-------
79.0 ms

 

Źródłem pochodzenia danych jest Instytut Meteorologii i Gospodarki Wodnej – Państwowy Instytut Badawczy. Dane Instytutu Meteorologii i Gospodarki Wodnej – Państwowego Instytutu Badawczego zostały przetworzone.

Dane źródłowe można odnaleźć na stronie https://dane.imgw.pl